createdAt,value
2023-01-15T00:02:06.902Z,3.52
2023-01-15T00:04:34.149Z,3.55
2023-01-15T00:07:01.389Z,3.58
2023-01-15T00:09:28.145Z,3.65
2023-01-15T00:11:55.003Z,3.69
2023-01-15T00:14:21.827Z,3.73
2023-01-15T00:16:52.863Z,3.74
2023-01-15T00:19:19.812Z,3.76
2023-01-15T00:21:46.656Z,3.76
2023-01-15T00:24:32.131Z,3.78
2023-01-15T00:27:17.653Z,3.78
2023-01-15T00:29:47.021Z,3.77
2023-01-15T00:32:13.756Z,3.73
2023-01-15T00:34:40.520Z,3.68
2023-01-15T00:37:07.340Z,3.66
2023-01-15T00:39:35.004Z,3.62
2023-01-15T00:42:02.975Z,3.57
2023-01-15T00:44:33.402Z,3.53
2023-01-15T00:47:00.579Z,3.50
2023-01-15T00:49:27.300Z,3.48
2023-01-15T00:51:54.358Z,3.46
2023-01-15T00:54:21.387Z,3.43
2023-01-15T00:56:48.059Z,3.41
2023-01-15T00:59:14.875Z,3.40
2023-01-15T01:01:42.944Z,3.39
2023-01-15T01:04:09.889Z,3.39
2023-01-15T01:06:36.729Z,3.41
2023-01-15T01:09:03.674Z,3.44
2023-01-15T01:11:33.894Z,3.45
2023-01-15T01:14:01.773Z,3.45
2023-01-15T01:16:32.938Z,3.48
2023-01-15T01:19:03.236Z,3.51
2023-01-15T01:21:31.506Z,3.52
2023-01-15T01:23:59.891Z,3.53
2023-01-15T01:26:28.012Z,3.53
2023-01-15T01:28:57.300Z,3.54
2023-01-15T01:31:24.907Z,3.57
2023-01-15T01:33:55.456Z,3.60
2023-01-15T01:36:28.147Z,3.62
2023-01-15T01:38:55.280Z,3.64
2023-01-15T01:41:22.544Z,3.65
2023-01-15T01:44:03.739Z,3.63
2023-01-15T01:46:33.319Z,3.62
2023-01-15T01:49:10.709Z,3.59
2023-01-15T01:51:42.985Z,3.56
2023-01-15T01:54:13.624Z,3.53
2023-01-15T01:56:41.377Z,3.50
2023-01-15T01:59:09.143Z,3.47
2023-01-15T02:01:36.097Z,3.42
2023-01-15T02:04:07.230Z,3.38
2023-01-15T02:06:35.409Z,3.36
2023-01-15T02:09:03.683Z,3.33
2023-01-15T02:11:32.471Z,3.31
2023-01-15T02:14:10.272Z,3.32
2023-01-15T02:16:48.172Z,3.31
2023-01-15T02:19:29.866Z,3.32
2023-01-15T02:22:34.082Z,3.37
2023-01-15T02:25:52.135Z,3.40
2023-01-15T02:28:25.767Z,3.43
2023-01-15T02:31:09.271Z,3.47
2023-01-15T02:33:42.053Z,3.51
2023-01-15T02:36:12.368Z,3.53
2023-01-15T02:38:45.321Z,3.53
2023-01-15T02:41:17.899Z,3.55
2023-01-15T02:43:50.800Z,3.58
2023-01-15T02:46:19.475Z,3.61
2023-01-15T02:48:52.318Z,3.63
2023-01-15T02:51:26.810Z,3.65
2023-01-15T02:53:59.420Z,3.68
2023-01-15T02:56:29.611Z,3.69
2023-01-15T02:59:01.869Z,3.69
2023-01-15T03:01:37.436Z,3.68
2023-01-15T03:04:12.705Z,3.64
2023-01-15T03:06:49.819Z,3.63
2023-01-15T03:09:19.791Z,3.61
2023-01-15T03:12:00.976Z,3.56
2023-01-15T03:14:43.053Z,3.52
2023-01-15T03:17:22.597Z,3.49
2023-01-15T03:19:58.296Z,3.48
2023-01-15T03:22:26.207Z,3.48
2023-01-15T03:25:11.380Z,3.48
2023-01-15T03:27:44.574Z,3.47
2023-01-15T03:30:17.047Z,3.47
2023-01-15T03:32:43.890Z,3.48
2023-01-15T03:35:47.706Z,3.49
2023-01-15T03:38:41.991Z,3.50
2023-01-15T03:41:19.270Z,3.53
2023-01-15T03:44:06.843Z,3.56
2023-01-15T03:47:01.912Z,3.60
2023-01-15T03:49:44.318Z,3.65
2023-01-15T03:52:31.409Z,3.68
2023-01-15T03:55:19.177Z,3.71
2023-01-15T03:57:57.277Z,3.72
2023-01-15T04:00:36.004Z,3.73
2023-01-15T04:03:08.986Z,3.75
2023-01-15T04:05:37.987Z,3.78
2023-01-15T04:08:06.568Z,3.78
2023-01-15T04:10:33.822Z,3.79
2023-01-15T04:13:02.294Z,3.79
2023-01-15T04:15:29.452Z,3.77
2023-01-15T04:17:56.497Z,3.73
2023-01-15T04:20:25.322Z,3.70
2023-01-15T04:22:52.329Z,3.68
2023-01-15T04:25:18.996Z,3.66
2023-01-15T04:27:46.123Z,3.63
2023-01-15T04:30:16.718Z,3.61
2023-01-15T04:32:43.636Z,3.63
2023-01-15T04:35:10.641Z,3.63
2023-01-15T04:37:37.408Z,3.66
2023-01-15T04:40:07.876Z,3.67
2023-01-15T04:42:53.595Z,3.70
2023-01-15T04:45:20.543Z,3.73
2023-01-15T04:47:47.490Z,3.75
2023-01-15T04:50:14.957Z,3.76
2023-01-15T04:52:41.685Z,3.78
2023-01-15T04:55:09.934Z,3.81
2023-01-15T04:57:38.442Z,3.85
2023-01-15T05:00:06.006Z,3.89
2023-01-15T05:02:32.927Z,3.92
2023-01-15T05:04:59.729Z,3.95
2023-01-15T05:07:26.375Z,3.97
2023-01-15T05:09:56.346Z,3.98
2023-01-15T05:12:23.288Z,4.00
2023-01-15T05:14:50.136Z,4.01
2023-01-15T05:17:17.190Z,4.03
2023-01-15T05:19:43.922Z,4.04
2023-01-15T05:22:11.281Z,4.01
2023-01-15T05:24:38.323Z,3.98
2023-01-15T05:27:05.181Z,3.95
2023-01-15T05:29:33.452Z,3.93
2023-01-15T05:32:00.292Z,3.90
2023-01-15T05:34:27.132Z,3.86
2023-01-15T05:36:54.383Z,3.83
2023-01-15T05:39:21.190Z,3.82
2023-01-15T05:41:51.248Z,3.83
2023-01-15T05:44:29.351Z,3.85
2023-01-15T05:46:59.676Z,3.88
2023-01-15T05:49:27.970Z,3.92
2023-01-15T05:51:55.420Z,3.96
2023-01-15T05:54:23.593Z,4.00
2023-01-15T05:56:50.633Z,4.05
2023-01-15T05:59:19.932Z,4.10
2023-01-15T06:01:46.702Z,4.17
2023-01-15T06:04:14.336Z,4.24
2023-01-15T06:06:42.827Z,4.30
2023-01-15T06:09:10.149Z,4.38
2023-01-15T06:11:37.224Z,4.45
2023-01-15T06:14:04.577Z,4.49
2023-01-15T06:16:32.036Z,4.54
2023-01-15T06:19:03.739Z,4.56
2023-01-15T06:21:33.123Z,4.54
2023-01-15T06:24:00.039Z,4.53
2023-01-15T06:26:27.596Z,4.52
2023-01-15T06:28:57.104Z,4.50
2023-01-15T06:31:27.952Z,4.46
2023-01-15T06:33:55.713Z,4.42
2023-01-15T06:36:25.447Z,4.39
2023-01-15T06:38:52.770Z,4.35
2023-01-15T06:41:42.256Z,4.31
2023-01-15T06:44:36.734Z,4.29
2023-01-15T06:47:24.368Z,4.29
2023-01-15T06:49:57.222Z,4.28
2023-01-15T06:52:25.636Z,4.30
2023-01-15T06:54:53.289Z,4.34
2023-01-15T06:57:20.964Z,4.39
2023-01-15T06:59:50.399Z,4.43
2023-01-15T07:02:18.024Z,4.46
2023-01-15T07:04:47.627Z,4.49
2023-01-15T07:07:17.035Z,4.52
2023-01-15T07:09:45.056Z,4.56
2023-01-15T07:12:12.866Z,4.63
2023-01-15T07:14:39.719Z,4.68
2023-01-15T07:17:09.454Z,4.71
2023-01-15T07:19:36.686Z,4.74
2023-01-15T07:22:03.732Z,4.73
2023-01-15T07:24:30.870Z,4.72
2023-01-15T07:26:57.814Z,4.71
2023-01-15T07:29:26.708Z,4.70
2023-01-15T07:31:53.757Z,4.69
2023-01-15T07:34:20.465Z,4.69
2023-01-15T07:36:47.830Z,4.69
2023-01-15T07:39:15.211Z,4.70
2023-01-15T07:42:03.650Z,4.71
2023-01-15T07:44:53.649Z,4.73
2023-01-15T07:47:41.887Z,4.74
2023-01-15T07:50:10.214Z,4.76
2023-01-15T07:52:37.316Z,4.80
2023-01-15T07:55:04.771Z,4.85
2023-01-15T07:57:31.760Z,4.88
2023-01-15T07:59:58.620Z,4.90
2023-01-15T08:02:26.839Z,4.89
2023-01-15T08:04:53.786Z,4.92
2023-01-15T08:07:20.548Z,4.95
2023-01-15T08:09:47.375Z,4.97
2023-01-15T08:12:32.827Z,4.96
2023-01-15T08:15:16.173Z,4.93
2023-01-15T08:17:48.561Z,4.88
2023-01-15T08:20:21.739Z,4.84
2023-01-15T08:22:49.119Z,4.81
2023-01-15T08:25:18.988Z,4.79
2023-01-15T08:27:46.158Z,4.77
2023-01-15T08:30:16.140Z,4.78
2023-01-15T08:32:45.506Z,4.81
2023-01-15T08:35:13.292Z,4.85
2023-01-15T08:37:41.470Z,4.89
2023-01-15T08:40:10.600Z,4.92
2023-01-15T08:42:37.971Z,4.95
2023-01-15T08:45:05.553Z,4.97
2023-01-15T08:47:32.950Z,4.99
2023-01-15T08:50:00.450Z,4.98
2023-01-15T08:52:27.406Z,4.94
2023-01-15T08:54:54.336Z,4.95
2023-01-15T08:57:21.080Z,4.95
2023-01-15T08:59:47.847Z,4.93
2023-01-15T09:02:15.271Z,4.91
2023-01-15T09:04:42.242Z,4.91
2023-01-15T09:07:09.315Z,4.90
2023-01-15T09:09:36.218Z,4.90
2023-01-15T09:12:03.259Z,4.88
2023-01-15T09:14:58.189Z,4.91
2023-01-15T09:17:17.033Z,4.95
2023-01-15T09:19:43.941Z,5.01
2023-01-15T09:22:11.633Z,5.05
2023-01-15T09:24:39.228Z,5.08
2023-01-15T09:27:06.644Z,5.08
2023-01-15T09:29:33.389Z,5.07
2023-01-15T09:32:00.637Z,5.07
2023-01-15T09:34:27.887Z,5.05
2023-01-15T09:36:54.744Z,5.06
2023-01-15T09:39:21.681Z,5.08
2023-01-15T09:42:12.378Z,5.12
2023-01-15T09:45:09.846Z,5.16
2023-01-15T09:47:46.330Z,5.24
2023-01-15T09:50:33.190Z,5.35
2023-01-15T09:53:21.222Z,5.42
2023-01-15T09:55:51.667Z,5.51
2023-01-15T09:58:25.401Z,5.59
2023-01-15T10:00:52.446Z,5.70
2023-01-15T10:03:40.505Z,5.77
2023-01-15T10:06:20.045Z,5.81
2023-01-15T10:08:49.982Z,5.85
2023-01-15T10:11:19.646Z,5.89
2023-01-15T10:13:50.279Z,5.93
2023-01-15T10:16:26.714Z,5.96
2023-01-15T10:18:57.516Z,6.00
2023-01-15T10:21:59.768Z,6.03
2023-01-15T10:24:29.977Z,6.03
2023-01-15T10:26:58.893Z,6.03
2023-01-15T10:29:28.579Z,6.03
2023-01-15T10:32:03.401Z,6.06
2023-01-15T10:34:58.105Z,6.09
2023-01-15T10:37:34.988Z,6.15
2023-01-15T10:40:22.000Z,6.23
2023-01-15T10:42:58.164Z,6.36
2023-01-15T10:45:33.915Z,6.45
2023-01-15T10:48:10.996Z,6.49
2023-01-15T10:50:38.253Z,6.50
2023-01-15T10:53:16.151Z,6.46
2023-01-15T10:55:49.035Z,6.46
2023-01-15T10:58:21.840Z,6.50
2023-01-15T11:01:00.885Z,6.52
2023-01-15T11:03:36.813Z,6.55
2023-01-15T11:06:07.605Z,6.61
2023-01-15T11:11:50.789Z,6.71
2023-01-15T11:14:36.064Z,6.78
2023-01-15T11:17:22.157Z,6.83
2023-01-15T11:19:52.275Z,6.87
2023-01-15T11:22:20.043Z,6.91
2023-01-15T11:24:58.474Z,6.97
2023-01-15T11:27:29.975Z,7.01
2023-01-15T11:29:59.729Z,7.04
2023-01-15T11:32:32.197Z,7.06
2023-01-15T11:35:18.314Z,7.07
2023-01-15T11:37:45.237Z,7.11
2023-01-15T11:40:22.672Z,7.13
2023-01-15T11:43:09.594Z,7.13
2023-01-15T11:46:07.205Z,7.13
2023-01-15T11:49:04.026Z,7.11
2023-01-15T11:51:42.814Z,7.11
2023-01-15T11:54:13.445Z,7.11
2023-01-15T11:56:43.013Z,7.11
2023-01-15T11:59:14.189Z,7.11
2023-01-15T12:01:59.433Z,7.14
2023-01-15T12:04:46.035Z,7.17
2023-01-15T12:07:14.028Z,7.21
2023-01-15T12:10:16.280Z,7.25
2023-01-15T12:13:22.040Z,7.29
2023-01-15T12:16:13.570Z,7.33
2023-01-15T12:18:58.940Z,7.42
2023-01-15T12:21:28.838Z,7.47
2023-01-15T12:24:14.950Z,7.48
2023-01-15T12:26:51.006Z,7.44
2023-01-15T12:29:26.871Z,7.39
2023-01-15T12:32:04.843Z,7.36
2023-01-15T12:34:54.135Z,7.31
2023-01-15T12:37:28.458Z,7.31
2023-01-15T12:40:05.610Z,7.29
2023-01-15T12:42:53.994Z,7.24
2023-01-15T12:45:27.181Z,7.21
2023-01-15T12:48:06.421Z,7.20
2023-01-15T12:50:44.517Z,7.14
2023-01-15T12:53:27.254Z,7.06
2023-01-15T12:56:01.248Z,6.98
2023-01-15T12:58:43.241Z,6.93
2023-01-15T13:01:13.722Z,6.89
2023-01-15T13:03:55.979Z,6.86
2023-01-15T13:06:26.533Z,6.80
2023-01-15T13:09:18.437Z,6.78
2023-01-15T13:11:45.483Z,6.77
2023-01-15T13:14:16.833Z,6.76
2023-01-15T13:17:28.647Z,6.74
2023-01-15T13:20:24.470Z,6.75
2023-01-15T13:23:06.250Z,6.79
2023-01-15T13:25:58.074Z,6.81
2023-01-15T13:28:27.686Z,6.82
2023-01-15T13:30:57.320Z,6.81
2023-01-15T13:33:29.365Z,6.82
2023-01-15T13:36:13.306Z,6.82
2023-01-15T13:38:46.601Z,6.82
2023-01-15T13:41:39.757Z,6.82
2023-01-15T13:44:20.042Z,6.79
2023-01-15T13:46:57.609Z,6.73
2023-01-15T13:49:39.912Z,6.68
2023-01-15T13:52:19.965Z,6.64
2023-01-15T13:54:48.651Z,6.59
2023-01-15T13:57:37.227Z,6.56
2023-01-15T14:00:29.032Z,6.51
2023-01-15T14:03:02.281Z,6.47
2023-01-15T14:05:34.680Z,6.42
2023-01-15T14:08:15.162Z,6.38
2023-01-15T14:10:42.108Z,6.33
2023-01-15T14:13:18.026Z,6.31
2023-01-15T14:16:03.282Z,6.28
2023-01-15T14:18:36.129Z,6.23
2023-01-15T14:21:37.581Z,6.18
2023-01-15T14:24:20.087Z,6.13
2023-01-15T14:26:54.610Z,6.10
2023-01-15T14:29:27.497Z,6.07
2023-01-15T14:32:30.286Z,6.05
2023-01-15T14:35:00.816Z,6.04
2023-01-15T14:37:47.060Z,6.05
2023-01-15T14:40:27.785Z,6.04
2023-01-15T14:43:04.248Z,6.02
2023-01-15T14:45:40.855Z,6.01
2023-01-15T14:48:29.172Z,5.99
2023-01-15T14:51:10.340Z,5.96
2023-01-15T14:53:48.661Z,5.92
2023-01-15T14:56:36.086Z,5.89
2023-01-15T14:59:22.485Z,5.84
2023-01-15T15:01:57.552Z,5.80
2023-01-15T15:04:48.322Z,5.76
2023-01-15T15:07:22.020Z,5.72
2023-01-15T15:09:57.787Z,5.69
2023-01-15T15:12:33.529Z,5.64
2023-01-15T15:15:30.889Z,5.58
2023-01-15T15:18:08.278Z,5.52
2023-01-15T15:21:02.424Z,5.48
2023-01-15T15:23:57.169Z,5.44
2023-01-15T15:26:29.738Z,5.39
2023-01-15T15:28:57.718Z,5.37
2023-01-15T15:31:28.136Z,5.35
2023-01-15T15:33:57.026Z,5.33
2023-01-15T15:36:27.041Z,5.32
2023-01-15T15:39:12.115Z,5.30
2023-01-15T15:42:01.594Z,5.30
2023-01-15T15:45:11.984Z,5.30
2023-01-15T15:47:59.893Z,5.31
2023-01-15T15:50:30.795Z,5.33
2023-01-15T15:52:58.694Z,5.35
2023-01-15T15:55:42.124Z,5.39
2023-01-15T15:58:22.083Z,5.41
2023-01-15T16:00:50.290Z,5.45
2023-01-15T16:03:26.417Z,5.51
2023-01-15T16:06:01.753Z,5.55
2023-01-15T16:08:31.210Z,5.57
2023-01-15T16:11:11.733Z,5.58
2023-01-15T16:13:43.158Z,5.57
2023-01-15T16:16:12.928Z,5.58
2023-01-15T16:18:48.230Z,5.56
2023-01-15T16:21:22.648Z,5.51
2023-01-15T16:24:21.030Z,5.47
2023-01-15T16:26:55.661Z,5.43
2023-01-15T16:29:26.454Z,5.40
2023-01-15T16:31:59.065Z,5.37
2023-01-15T16:34:30.482Z,5.34
2023-01-15T16:36:59.426Z,5.33
2023-01-15T16:39:28.415Z,5.30
2023-01-15T16:41:57.294Z,5.28
2023-01-15T16:44:31.237Z,5.25
2023-01-15T16:47:01.323Z,5.23
2023-01-15T16:49:30.587Z,5.21
2023-01-15T16:52:00.389Z,5.18
2023-01-15T16:54:29.956Z,5.16
2023-01-15T16:57:02.934Z,5.16
2023-01-15T16:59:30.501Z,5.16
2023-01-15T17:02:15.015Z,5.16
2023-01-15T17:04:44.372Z,5.17
2023-01-15T17:07:38.842Z,5.20
2023-01-15T17:10:19.917Z,5.23
2023-01-15T17:12:47.286Z,5.29
2023-01-15T17:15:14.115Z,5.35
2023-01-15T17:17:52.022Z,5.42
2023-01-15T17:20:23.263Z,5.50
2023-01-15T17:22:50.433Z,5.57
2023-01-15T17:25:21.966Z,5.61
2023-01-15T17:27:48.711Z,5.65
2023-01-15T17:30:16.335Z,5.63
2023-01-15T17:32:43.223Z,5.59
2023-01-15T17:35:24.185Z,5.55
2023-01-15T17:37:51.132Z,5.48
2023-01-15T17:40:18.794Z,5.39
2023-01-15T17:42:45.947Z,5.29
2023-01-15T17:45:15.348Z,5.17
2023-01-15T17:47:43.423Z,5.03
2023-01-15T17:50:10.366Z,4.88
2023-01-15T17:52:37.108Z,4.71
2023-01-15T17:55:23.408Z,4.55
2023-01-15T17:58:08.678Z,4.36
2023-01-15T18:00:55.594Z,4.17
2023-01-15T18:03:42.550Z,3.99
2023-01-15T18:06:12.011Z,3.81
2023-01-15T18:08:46.442Z,3.67
2023-01-15T18:11:13.276Z,3.53
2023-01-15T18:13:43.113Z,3.44
2023-01-15T18:16:10.492Z,3.39
2023-01-15T18:18:38.312Z,3.36
2023-01-15T18:21:05.669Z,3.38
2023-01-15T18:23:34.605Z,3.41
2023-01-15T18:26:08.775Z,3.47
2023-01-15T18:28:38.608Z,3.54
2023-01-15T18:31:06.488Z,3.63
2023-01-15T18:33:33.846Z,3.72
2023-01-15T18:36:12.451Z,3.81
2023-01-15T18:38:45.620Z,3.88
2023-01-15T18:41:34.068Z,3.94
2023-01-15T18:44:25.898Z,4.00
2023-01-15T18:46:56.786Z,4.04
2023-01-15T18:49:24.089Z,4.06
2023-01-15T18:52:11.311Z,4.07
2023-01-15T18:54:38.358Z,4.08
2023-01-15T18:57:05.264Z,4.11
2023-01-15T18:59:32.763Z,4.11
2023-01-15T19:02:04.107Z,4.09
2023-01-15T19:04:31.391Z,4.06
2023-01-15T19:06:59.536Z,4.03
2023-01-15T19:09:26.365Z,3.99
2023-01-15T19:11:54.017Z,3.94
2023-01-15T19:14:40.560Z,3.89
2023-01-15T19:17:34.637Z,3.86
2023-01-15T19:20:01.722Z,3.82
2023-01-15T19:22:48.385Z,3.79
2023-01-15T19:25:16.354Z,3.74
2023-01-15T19:27:47.368Z,3.71
2023-01-15T19:30:14.337Z,3.69
2023-01-15T19:32:42.207Z,3.68
2023-01-15T19:35:09.359Z,3.68
2023-01-15T19:37:38.862Z,3.68
2023-01-15T19:40:32.129Z,3.69
2023-01-15T19:43:18.015Z,3.73
2023-01-15T19:46:03.668Z,3.77
2023-01-15T19:48:51.026Z,3.83
2023-01-15T19:51:19.506Z,3.89
2023-01-15T19:53:47.377Z,3.97
2023-01-15T19:56:14.831Z,4.03
2023-01-15T19:58:41.979Z,4.08
2023-01-15T20:01:15.610Z,4.14
2023-01-15T20:03:42.528Z,4.21
2023-01-15T20:06:09.272Z,4.24
2023-01-15T20:08:36.626Z,4.28
2023-01-15T20:11:07.655Z,4.30
2023-01-15T20:13:51.487Z,4.32
2023-01-15T20:16:21.886Z,4.33
2023-01-15T20:18:50.218Z,4.31
2023-01-15T20:21:18.085Z,4.28
2023-01-15T20:23:46.249Z,4.24
2023-01-15T20:26:14.451Z,4.19
2023-01-15T20:28:48.405Z,4.13
2023-01-15T20:31:17.430Z,4.09
2023-01-15T20:33:45.707Z,4.04
2023-01-15T20:36:12.758Z,3.99
2023-01-15T20:38:39.499Z,3.94
2023-01-15T20:41:27.229Z,3.87
2023-01-15T20:44:12.916Z,3.80
2023-01-15T20:46:39.866Z,3.72
2023-01-15T20:49:28.308Z,3.66
2023-01-15T20:51:57.031Z,3.59
2023-01-15T20:54:25.486Z,3.54
2023-01-15T20:56:52.840Z,3.51
2023-01-15T20:59:19.582Z,3.50
2023-01-15T21:01:46.552Z,3.49
2023-01-15T21:04:13.921Z,3.49
2023-01-15T21:06:41.447Z,3.47
2023-01-15T21:09:08.330Z,3.48
2023-01-15T21:11:35.222Z,3.47
2023-01-15T21:14:03.086Z,3.49
2023-01-15T21:16:30.297Z,3.52
2023-01-15T21:19:00.563Z,3.55
2023-01-15T21:21:27.419Z,3.57
2023-01-15T21:23:54.239Z,3.59
2023-01-15T21:26:21.114Z,3.60
2023-01-15T21:28:47.835Z,3.62
2023-01-15T21:31:14.765Z,3.64
2023-01-15T21:33:41.633Z,3.66
2023-01-15T21:36:11.102Z,3.69
2023-01-15T21:38:38.905Z,3.69
2023-01-15T21:41:09.143Z,3.67
2023-01-15T21:43:55.224Z,3.66
2023-01-15T21:46:26.556Z,3.66
2023-01-15T21:48:57.599Z,3.64
2023-01-15T21:51:26.183Z,3.62
2023-01-15T21:53:53.442Z,3.59
2023-01-15T21:56:20.792Z,3.58
2023-01-15T21:58:48.051Z,3.57
2023-01-15T22:01:17.606Z,3.56
2023-01-15T22:03:45.405Z,3.56
2023-01-15T22:06:12.569Z,3.56
2023-01-15T22:08:39.556Z,3.56
2023-01-15T22:11:09.118Z,3.57
2023-01-15T22:13:37.102Z,3.59
2023-01-15T22:16:04.604Z,3.63
2023-01-15T22:18:33.160Z,3.67
2023-01-15T22:21:01.321Z,3.71
2023-01-15T22:23:28.353Z,3.77
2023-01-15T22:25:55.611Z,3.82
2023-01-15T22:28:23.135Z,3.85
2023-01-15T22:30:49.879Z,3.88
2023-01-15T22:33:17.155Z,3.92
2023-01-15T22:35:43.897Z,3.99
2023-01-15T22:38:10.742Z,4.04
2023-01-15T22:40:37.592Z,4.05
2023-01-15T22:43:04.434Z,4.05
2023-01-15T22:45:31.374Z,4.04
2023-01-15T22:47:58.217Z,4.03
2023-01-15T22:50:25.065Z,4.03
2023-01-15T22:52:51.909Z,4.03
2023-01-15T22:55:18.643Z,4.01
2023-01-15T22:57:47.128Z,3.99
2023-01-15T23:00:14.998Z,3.95
2023-01-15T23:02:53.922Z,3.93
2023-01-15T23:05:22.400Z,3.90
2023-01-15T23:07:49.860Z,3.87
2023-01-15T23:10:17.025Z,3.85
2023-01-15T23:12:43.851Z,3.86
2023-01-15T23:15:13.617Z,3.87
2023-01-15T23:17:41.103Z,3.87
2023-01-15T23:20:09.939Z,3.87
2023-01-15T23:22:36.750Z,3.89
2023-01-15T23:25:03.908Z,3.93
2023-01-15T23:27:32.907Z,3.96
2023-01-15T23:29:59.841Z,3.98
2023-01-15T23:32:27.508Z,4.00
2023-01-15T23:34:54.557Z,4.02
2023-01-15T23:37:21.601Z,4.05
2023-01-15T23:39:48.375Z,4.11
2023-01-15T23:42:34.229Z,4.16
2023-01-15T23:45:20.119Z,4.18
2023-01-15T23:47:46.969Z,4.18
2023-01-15T23:50:14.626Z,4.19
2023-01-15T23:52:41.795Z,4.21
2023-01-15T23:55:09.700Z,4.24
2023-01-15T23:57:36.486Z,4.22
